Rain From: 22-06-2018 10:43 Until: 18:30 warning for: Rain Level: Yellow info button
suomi:
Sadevaroitus: voi sataa runsaasti, yli 50 mm vuorokaudessa.

svenska:
Nederbördsvarning: kan det förekomma riklig nederbörd, mer än 50 mm i dygnet.

english:
Heavy rain warning: heavy rain of more than 50 mm in the 24 hours can be expected. 


Thunder radar more information blitzortung!


Löydät sääaseman tiedot myös:

European Weather Network

Finland Weather Exchange

Weather Underground

AWEKAS



Weather Underground säähistoriasivu

Päivittäin yhteenveto Marraskuu 11, 2017 Yksiköt:  Englantilaiset    Metriset   Molemmat
« Edellinen Päivä
Seuraava Päivä »
Päivittäin Viikoittain Kuukausittain Vuosittain Mukautettu
  Korkea: Matala: Keskiarvo:
Lämpötila: TemperatureC °F 1.2 °F 2.8 °F
Kastepiste: DewpointC °F 0.6 °F 2.2 °F
Kosteus: Humidity % 92 % 94 %
Tuulen nopeus: WindSpeedKMH mph 0.0 mph 0 mph
Tuulenpuuska: WindSpeedGustKMH mph - -
Tuuli:- - North
Ilmanpaine: PressurehPa in 983.0 in -
Sade: 0.0 in    
Historical Graphs
 
 
Taulukkotiedot Marraskuu 11, 2017
Aika Lämpötila Kastepiste Ilmanpaine Tuuli Tuulen nopeus Tuulenpuuska Kosteus Sademäärä (tunneittain)
TemperatureC °F DewpointC °F PressurehPa in Calm     Humidity % HourlyPrecipMM in
00:00 3.4 °F 2.5 °F 993.1 in Calm     94 % 0.0 in
00:15 3.3 °F 2.4 °F 993.1 in Calm     94 % 0.0 in
00:30 3.2 °F 2.3 °F 993.5 in Calm     94 % 0.0 in
00:45 3.1 °F 2.2 °F 993.1 in Calm     94 % 0.0 in
01:00 2.9 °F 2.1 °F 993.1 in Calm     94 % 0.0 in
01:15 2.9 °F 2.2 °F 993.1 in Calm     95 % 0.0 in
01:30 2.7 °F 2.0 °F 993.1 in Calm     95 % 0.0 in
01:45 2.6 °F 1.8 °F 993.1 in Calm     95 % 0.0 in
02:00 2.5 °F 1.8 °F 993.1 in Calm     95 % 0.0 in
02:15 2.6 °F 2.0 °F 993.1 in Calm     96 % 0.0 in
02:30 2.4 °F 1.9 °F 992.8 in Calm     96 % 0.0 in
02:45 2.4 °F 1.9 °F 992.8 in Calm     96 % 0.0 in
03:00 2.4 °F 1.9 °F 992.8 in Calm     96 % 0.0 in
03:15 2.4 °F 1.8 °F 992.8 in Calm     96 % 0.0 in
03:30 2.3 °F 1.8 °F 992.4 in Calm     96 % 0.0 in
03:45 2.2 °F 1.7 °F 992.4 in Calm     96 % 0.0 in
04:00 2.0 °F 1.3 °F 992.4 in Calm     95 % 0.0 in
04:15 1.8 °F 1.1 °F 992.4 in Calm     95 % 0.0 in
04:30 1.6 °F 0.8 °F 992.1 in Calm     95 % 0.0 in
04:45 1.3 °F 0.6 °F 992.1 in Calm     95 % 0.0 in
05:00 1.2 °F 0.7 °F 992.1 in Calm     96 % 0.0 in
05:30 1.2 °F 0.7 °F 992.1 in Calm     96 % 0.0 in
05:45 1.2 °F 0.7 °F 992.1 in Calm     96 % 0.0 in
06:00 1.4 °F 0.8 °F 992.1 in Calm     96 % 0.0 in
06:15 1.4 °F 0.9 °F 992.1 in Calm     96 % 0.0 in
06:30 1.6 °F 1.1 °F 992.1 in Calm     97 % 0.0 in
06:45 1.7 °F 1.2 °F 991.8 in Calm     97 % 0.0 in
07:00 1.8 °F 1.4 °F 991.8 in Calm     97 % 0.0 in
07:15 2.0 °F 1.6 °F 991.8 in Calm     97 % 0.0 in
07:30 2.1 °F 1.7 °F 991.8 in Calm     97 % 0.0 in
07:45 2.2 °F 1.8 °F 991.8 in Calm     97 % 0.0 in
08:00 2.3 °F 1.9 °F 991.8 in Calm     97 % 0.0 in
08:15 2.4 °F 2.0 °F 991.8 in Calm     97 % 0.0 in
08:30 2.5 °F 2.1 °F 991.8 in Calm     97 % 0.0 in
08:45 2.6 °F 2.1 °F 991.4 in Calm     97 % 0.0 in
09:00 2.7 °F 2.2 °F 991.4 in Calm     97 % 0.0 in
09:15 2.8 °F 2.3 °F 991.1 in Calm     97 % 0.0 in
09:30 2.9 °F 2.5 °F 991.1 in Calm     97 % 0.0 in
09:45 3.1 °F 2.6 °F 991.1 in Calm     97 % 0.0 in
10:00 3.2 °F 2.8 °F 991.1 in Calm     97 % 0.0 in
10:15 3.3 °F 2.8 °F 991.1 in Calm     96 % 0.0 in
10:30 3.4 °F 2.7 °F 991.1 in Calm     95 % 0.0 in
10:45 3.5 °F 2.6 °F 991.1 in Calm     94 % 0.0 in
11:00 3.4 °F 2.4 °F 990.7 in Calm     93 % 0.0 in
11:15 3.3 °F 2.3 °F 990.7 in Calm     93 % 0.0 in
11:30 3.3 °F 2.3 °F 990.7 in Calm     93 % 0.0 in
11:45 3.5 °F 2.5 °F 990.4 in Calm     93 % 0.0 in
12:00 3.6 °F 2.4 °F 990.1 in Calm     92 % 0.0 in
12:15 3.4 °F 2.2 °F 990.4 in Calm     92 % 0.0 in
12:30 3.4 °F 2.4 °F 990.1 in Calm     93 % 0.0 in
12:45 3.5 °F 2.5 °F 990.1 in Calm     93 % 0.0 in
13:00 3.6 °F 2.5 °F 989.7 in Calm     93 % 0.0 in
13:15 3.7 °F 2.7 °F 989.7 in Calm     93 % 0.0 in
13:30 3.9 °F 2.9 °F 989.4 in Calm     93 % 0.0 in
13:45 4.1 °F 3.0 °F 989.4 in Calm     93 % 0.0 in
14:00 4.0 °F 3.0 °F 989.1 in Calm     93 % 0.0 in
14:15 4.0 °F 3.0 °F 989.1 in Calm     93 % 0.0 in
14:30 3.9 °F 2.9 °F 988.7 in Calm     93 % 0.0 in
14:45 3.9 °F 2.9 °F 988.7 in Calm     93 % 0.0 in
15:00 3.8 °F 3.0 °F 988.4 in Calm     94 % 0.0 in
15:15 3.8 °F 3.0 °F 988.4 in Calm     94 % 0.0 in
15:30 3.8 °F 3.0 °F 988.0 in Calm     94 % 0.0 in
15:45 3.9 °F 3.0 °F 988.0 in Calm     94 % 0.0 in
16:00 3.9 °F 3.0 °F 988.0 in Calm     94 % 0.0 in
16:15 3.8 °F 3.0 °F 987.7 in Calm     94 % 0.0 in
16:30 3.8 °F 3.0 °F 987.7 in Calm     94 % 0.0 in
16:45 3.8 °F 2.9 °F 987.7 in Calm     94 % 0.0 in
17:00 3.8 °F 2.9 °F 987.4 in Calm     94 % 0.0 in
17:15 3.7 °F 2.8 °F 987.4 in Calm     94 % 0.0 in
17:30 3.6 °F 2.9 °F 987.0 in Calm     95 % 0.0 in
17:45 3.6 °F 2.8 °F 986.7 in Calm     95 % 0.0 in
18:00 3.5 °F 2.8 °F 986.7 in Calm     95 % 0.0 in
18:15 3.5 °F 2.8 °F 986.3 in Calm     95 % 0.0 in
18:30 3.5 °F 2.8 °F 986.0 in Calm     95 % 0.0 in
18:45 3.4 °F 2.7 °F 986.0 in Calm     95 % 0.0 in
19:00 3.4 °F 2.8 °F 985.7 in Calm     96 % 0.0 in
19:15 3.3 °F 2.8 °F 985.7 in Calm     96 % 0.0 in
19:30 3.3 °F 2.8 °F 985.7 in Calm     96 % 0.0 in
19:45 3.3 °F 2.7 °F 985.3 in Calm     96 % 0.0 in
20:00 3.3 °F 2.7 °F 985.3 in Calm     96 % 0.0 in
20:15 3.2 °F 2.8 °F 985.0 in Calm     97 % 0.0 in
20:30 3.2 °F 2.7 °F 985.0 in Calm     97 % 0.0 in
20:45 3.1 °F 2.5 °F 984.6 in Calm     96 % 0.0 in
21:00 2.9 °F 2.5 °F 984.6 in Calm     97 % 0.0 in
21:15 2.8 °F 2.3 °F 984.3 in Calm     97 % 0.0 in
21:30 2.7 °F 2.2 °F 984.3 in Calm     97 % 0.0 in
21:45 2.6 °F 2.1 °F 984.0 in Calm     97 % 0.0 in
22:00 2.4 °F 2.0 °F 984.0 in Calm     97 % 0.0 in
22:15 2.3 °F 1.9 °F 983.6 in Calm     97 % 0.0 in
22:30 2.2 °F 1.7 °F 983.6 in Calm     97 % 0.0 in
22:45 2.1 °F 1.6 °F 983.3 in Calm     97 % 0.0 in
23:00 1.9 °F 1.5 °F 983.3 in Calm     97 % 0.0 in
23:15 1.8 °F 1.4 °F 983.0 in Calm     97 % 0.0 in
23:30 1.7 °F 1.3 °F 983.0 in Calm     97 % 0.0 in
23:45 1.6 °F 1.1 °F 983.0 in Calm     97 % 0.0 in
Esan sääasema
Terveisin Weather Underground - 2.75 mb

Alkuperäinen skripti  Jim McMurry - jmcmurry@mwt.net Sovitettu myös templatelle  Wim van der Kuil - Leuven-Template.eu

Laitteet joita käytämme:

Sääasema
Davis VP2

Sääasemaohjelma
Cumulus

Sääaseman tietokone
Asus EeePC

Palveluntarjoaja
Suncomet

Davis VP2

Cumulus

Asus EeePC

Suncomet